sensor_id;sensor_type;location;lat;lon;timestamp;temperature;humidity
10812;DHT22;5458;51.496;7.334;2022-08-21T00:02:24;19.70;99.90
10812;DHT22;5458;51.496;7.334;2022-08-21T00:04:50;19.70;99.90
10812;DHT22;5458;51.496;7.334;2022-08-21T00:07:17;19.60;99.90
10812;DHT22;5458;51.496;7.334;2022-08-21T00:09:43;19.60;99.90
10812;DHT22;5458;51.496;7.334;2022-08-21T00:12:08;19.60;99.90
10812;DHT22;5458;51.496;7.334;2022-08-21T00:14:34;19.50;99.90
10812;DHT22;5458;51.496;7.334;2022-08-21T00:17:01;19.50;99.90
10812;DHT22;5458;51.496;7.334;2022-08-21T00:19:27;19.50;99.90
10812;DHT22;5458;51.496;7.334;2022-08-21T00:21:54;19.50;99.90
10812;DHT22;5458;51.496;7.334;2022-08-21T00:24:21;19.50;99.90
10812;DHT22;5458;51.496;7.334;2022-08-21T00:26:47;19.50;99.90
10812;DHT22;5458;51.496;7.334;2022-08-21T00:29:13;19.50;99.90
10812;DHT22;5458;51.496;7.334;2022-08-21T00:31:39;19.50;99.90
10812;DHT22;5458;51.496;7.334;2022-08-21T00:34:05;19.50;99.90
10812;DHT22;5458;51.496;7.334;2022-08-21T00:36:32;19.50;99.90
10812;DHT22;5458;51.496;7.334;2022-08-21T00:38:58;19.50;99.90
10812;DHT22;5458;51.496;7.334;2022-08-21T00:41:24;19.40;99.90
10812;DHT22;5458;51.496;7.334;2022-08-21T00:43:50;19.40;99.90
10812;DHT22;5458;51.496;7.334;2022-08-21T00:46:17;19.40;99.90
10812;DHT22;5458;51.496;7.334;2022-08-21T00:48:42;19.30;99.90
10812;DHT22;5458;51.496;7.334;2022-08-21T00:51:15;19.30;99.90
10812;DHT22;5458;51.496;7.334;2022-08-21T00:53:45;19.30;99.90
10812;DHT22;5458;51.496;7.334;2022-08-21T00:56:11;19.30;99.90
10812;DHT22;5458;51.496;7.334;2022-08-21T00:58:39;19.20;99.90
10812;DHT22;5458;51.496;7.334;2022-08-21T01:01:06;19.20;99.90
10812;DHT22;5458;51.496;7.334;2022-08-21T01:03:33;19.20;99.90
10812;DHT22;5458;51.496;7.334;2022-08-21T01:05:58;19.20;99.90
10812;DHT22;5458;51.496;7.334;2022-08-21T01:08:24;19.20;99.90
10812;DHT22;5458;51.496;7.334;2022-08-21T01:10:52;19.20;99.90
10812;DHT22;5458;51.496;7.334;2022-08-21T01:13:19;19.20;99.90
10812;DHT22;5458;51.496;7.334;2022-08-21T01:15:50;19.30;99.90
10812;DHT22;5458;51.496;7.334;2022-08-21T01:18:18;19.30;99.90
10812;DHT22;5458;51.496;7.334;2022-08-21T01:20:58;19.30;99.90
10812;DHT22;5458;51.496;7.334;2022-08-21T01:23:24;19.40;99.90
10812;DHT22;5458;51.496;7.334;2022-08-21T01:25:49;19.40;99.90
10812;DHT22;5458;51.496;7.334;2022-08-21T01:28:15;19.40;99.90
10812;DHT22;5458;51.496;7.334;2022-08-21T01:30:42;19.40;99.90
10812;DHT22;5458;51.496;7.334;2022-08-21T01:33:08;19.40;99.90
10812;DHT22;5458;51.496;7.334;2022-08-21T01:35:33;19.40;99.90
10812;DHT22;5458;51.496;7.334;2022-08-21T01:37:59;19.40;99.90
10812;DHT22;5458;51.496;7.334;2022-08-21T01:40:25;19.40;99.90
10812;DHT22;5458;51.496;7.334;2022-08-21T01:42:51;19.40;99.90
10812;DHT22;5458;51.496;7.334;2022-08-21T01:45:16;19.50;99.90
10812;DHT22;5458;51.496;7.334;2022-08-21T01:47:43;19.50;99.90
10812;DHT22;5458;51.496;7.334;2022-08-21T01:50:12;19.40;99.90
10812;DHT22;5458;51.496;7.334;2022-08-21T01:52:38;19.40;99.90
10812;DHT22;5458;51.496;7.334;2022-08-21T01:55:06;19.40;99.90
10812;DHT22;5458;51.496;7.334;2022-08-21T01:57:32;19.30;99.90
10812;DHT22;5458;51.496;7.334;2022-08-21T01:59:58;19.30;99.90
10812;DHT22;5458;51.496;7.334;2022-08-21T02:02:24;19.20;99.90
10812;DHT22;5458;51.496;7.334;2022-08-21T02:04:50;19.20;99.90
10812;DHT22;5458;51.496;7.334;2022-08-21T02:07:15;19.10;99.90
10812;DHT22;5458;51.496;7.334;2022-08-21T02:09:41;19.10;99.90
10812;DHT22;5458;51.496;7.334;2022-08-21T02:12:11;19.00;99.90
10812;DHT22;5458;51.496;7.334;2022-08-21T02:14:37;19.00;99.90
10812;DHT22;5458;51.496;7.334;2022-08-21T02:17:03;18.90;99.90
10812;DHT22;5458;51.496;7.334;2022-08-21T02:19:28;18.90;99.90
10812;DHT22;5458;51.496;7.334;2022-08-21T02:21:54;18.90;99.90
10812;DHT22;5458;51.496;7.334;2022-08-21T02:24:20;18.80;99.90
10812;DHT22;5458;51.496;7.334;2022-08-21T02:26:45;18.80;99.90
10812;DHT22;5458;51.496;7.334;2022-08-21T02:29:12;18.70;99.90
10812;DHT22;5458;51.496;7.334;2022-08-21T02:31:38;18.70;99.90
10812;DHT22;5458;51.496;7.334;2022-08-21T02:34:03;18.70;99.90
10812;DHT22;5458;51.496;7.334;2022-08-21T02:36:29;18.70;99.90
10812;DHT22;5458;51.496;7.334;2022-08-21T02:38:55;18.60;99.90
10812;DHT22;5458;51.496;7.334;2022-08-21T02:41:22;18.60;99.90
10812;DHT22;5458;51.496;7.334;2022-08-21T02:43:48;18.60;99.90
10812;DHT22;5458;51.496;7.334;2022-08-21T02:46:17;18.50;99.90
10812;DHT22;5458;51.496;7.334;2022-08-21T02:48:43;18.50;99.90
10812;DHT22;5458;51.496;7.334;2022-08-21T02:51:15;18.50;99.90
10812;DHT22;5458;51.496;7.334;2022-08-21T02:53:43;18.50;99.90
10812;DHT22;5458;51.496;7.334;2022-08-21T02:56:11;18.50;99.90
10812;DHT22;5458;51.496;7.334;2022-08-21T02:58:40;18.40;99.90
10812;DHT22;5458;51.496;7.334;2022-08-21T03:01:07;18.40;99.90
10812;DHT22;5458;51.496;7.334;2022-08-21T03:03:35;18.40;99.90
10812;DHT22;5458;51.496;7.334;2022-08-21T03:06:00;18.40;99.90
10812;DHT22;5458;51.496;7.334;2022-08-21T03:08:26;18.40;99.90
10812;DHT22;5458;51.496;7.334;2022-08-21T03:10:52;18.40;99.90
10812;DHT22;5458;51.496;7.334;2022-08-21T03:13:19;18.30;99.90
10812;DHT22;5458;51.496;7.334;2022-08-21T03:15:46;18.30;99.90
10812;DHT22;5458;51.496;7.334;2022-08-21T03:18:12;18.30;99.90
10812;DHT22;5458;51.496;7.334;2022-08-21T03:20:39;18.30;99.90
10812;DHT22;5458;51.496;7.334;2022-08-21T03:23:06;18.30;99.90
10812;DHT22;5458;51.496;7.334;2022-08-21T03:25:32;18.20;99.90
10812;DHT22;5458;51.496;7.334;2022-08-21T03:27:59;18.20;99.90
10812;DHT22;5458;51.496;7.334;2022-08-21T03:30:25;18.20;99.90
10812;DHT22;5458;51.496;7.334;2022-08-21T03:32:50;18.20;99.90
10812;DHT22;5458;51.496;7.334;2022-08-21T03:35:17;18.20;99.90
10812;DHT22;5458;51.496;7.334;2022-08-21T03:37:43;18.10;99.90
10812;DHT22;5458;51.496;7.334;2022-08-21T03:40:11;18.10;99.90
10812;DHT22;5458;51.496;7.334;2022-08-21T03:42:37;18.20;99.90
10812;DHT22;5458;51.496;7.334;2022-08-21T03:45:03;18.10;99.90
10812;DHT22;5458;51.496;7.334;2022-08-21T03:47:29;18.10;99.90
10812;DHT22;5458;51.496;7.334;2022-08-21T03:49:55;18.10;99.90
10812;DHT22;5458;51.496;7.334;2022-08-21T03:52:21;18.10;99.90
10812;DHT22;5458;51.496;7.334;2022-08-21T03:54:46;18.10;99.90
10812;DHT22;5458;51.496;7.334;2022-08-21T03:57:12;18.00;99.90
10812;DHT22;5458;51.496;7.334;2022-08-21T03:59:38;18.00;99.90
10812;DHT22;5458;51.496;7.334;2022-08-21T04:02:10;18.00;99.90
10812;DHT22;5458;51.496;7.334;2022-08-21T04:04:36;18.00;99.90
10812;DHT22;5458;51.496;7.334;2022-08-21T04:07:03;18.00;99.90
10812;DHT22;5458;51.496;7.334;2022-08-21T04:09:29;18.00;99.90
10812;DHT22;5458;51.496;7.334;2022-08-21T04:11:56;17.90;99.90
10812;DHT22;5458;51.496;7.334;2022-08-21T04:14:21;17.90;99.90
10812;DHT22;5458;51.496;7.334;2022-08-21T04:16:47;17.90;99.90
10812;DHT22;5458;51.496;7.334;2022-08-21T04:19:14;17.90;99.90
10812;DHT22;5458;51.496;7.334;2022-08-21T04:21:40;17.80;99.90
10812;DHT22;5458;51.496;7.334;2022-08-21T04:24:07;17.90;99.90
10812;DHT22;5458;51.496;7.334;2022-08-21T04:26:35;17.80;99.90
10812;DHT22;5458;51.496;7.334;2022-08-21T04:29:02;17.80;99.90
10812;DHT22;5458;51.496;7.334;2022-08-21T04:31:28;17.80;99.90
10812;DHT22;5458;51.496;7.334;2022-08-21T04:33:54;17.80;99.90
10812;DHT22;5458;51.496;7.334;2022-08-21T04:36:21;17.80;99.90
10812;DHT22;5458;51.496;7.334;2022-08-21T04:38:48;17.80;99.90
10812;DHT22;5458;51.496;7.334;2022-08-21T04:41:13;17.70;99.90
10812;DHT22;5458;51.496;7.334;2022-08-21T04:43:39;17.70;99.90
10812;DHT22;5458;51.496;7.334;2022-08-21T04:46:05;17.70;99.90
10812;DHT22;5458;51.496;7.334;2022-08-21T04:48:31;17.70;99.90
10812;DHT22;5458;51.496;7.334;2022-08-21T04:53:33;17.80;99.90
10812;DHT22;5458;51.496;7.334;2022-08-21T04:56:06;17.90;99.90
10812;DHT22;5458;51.496;7.334;2022-08-21T04:58:35;17.90;99.90
10812;DHT22;5458;51.496;7.334;2022-08-21T05:01:04;17.80;99.90
10812;DHT22;5458;51.496;7.334;2022-08-21T05:03:33;17.90;99.90
10812;DHT22;5458;51.496;7.334;2022-08-21T05:06:00;17.90;99.90
10812;DHT22;5458;51.496;7.334;2022-08-21T05:08:27;17.90;99.90
10812;DHT22;5458;51.496;7.334;2022-08-21T05:10:53;18.00;99.90
10812;DHT22;5458;51.496;7.334;2022-08-21T05:13:19;18.00;99.90
10812;DHT22;5458;51.496;7.334;2022-08-21T05:15:45;18.10;99.90
10812;DHT22;5458;51.496;7.334;2022-08-21T05:18:11;18.10;99.90
10812;DHT22;5458;51.496;7.334;2022-08-21T05:20:37;18.20;99.90
10812;DHT22;5458;51.496;7.334;2022-08-21T05:23:08;18.20;99.90
10812;DHT22;5458;51.496;7.334;2022-08-21T05:25:34;18.30;99.90
10812;DHT22;5458;51.496;7.334;2022-08-21T05:27:59;18.30;99.90
10812;DHT22;5458;51.496;7.334;2022-08-21T05:30:25;18.40;99.90
10812;DHT22;5458;51.496;7.334;2022-08-21T05:32:59;18.50;99.90
10812;DHT22;5458;51.496;7.334;2022-08-21T05:35:25;18.50;99.90
10812;DHT22;5458;51.496;7.334;2022-08-21T05:37:51;18.60;99.90
10812;DHT22;5458;51.496;7.334;2022-08-21T05:40:16;18.70;99.90
10812;DHT22;5458;51.496;7.334;2022-08-21T05:42:43;18.80;99.90
10812;DHT22;5458;51.496;7.334;2022-08-21T05:45:09;18.90;99.90
10812;DHT22;5458;51.496;7.334;2022-08-21T05:47:34;19.10;99.90
10812;DHT22;5458;51.496;7.334;2022-08-21T05:50:00;19.90;99.90
10812;DHT22;5458;51.496;7.334;2022-08-21T05:52:26;21.60;99.90
10812;DHT22;5458;51.496;7.334;2022-08-21T05:54:51;23.60;99.90
10812;DHT22;5458;51.496;7.334;2022-08-21T05:57:19;25.50;97.40
10812;DHT22;5458;51.496;7.334;2022-08-21T05:59:45;27.10;93.70
10812;DHT22;5458;51.496;7.334;2022-08-21T06:02:11;28.30;90.80
10812;DHT22;5458;51.496;7.334;2022-08-21T06:04:38;29.30;86.40
10812;DHT22;5458;51.496;7.334;2022-08-21T06:07:04;30.20;81.20
10812;DHT22;5458;51.496;7.334;2022-08-21T06:09:30;31.00;77.00
10812;DHT22;5458;51.496;7.334;2022-08-21T06:11:56;31.50;73.30
10812;DHT22;5458;51.496;7.334;2022-08-21T06:14:21;31.80;70.30
10812;DHT22;5458;51.496;7.334;2022-08-21T06:16:47;32.40;69.10
10812;DHT22;5458;51.496;7.334;2022-08-21T06:19:13;32.90;66.30
10812;DHT22;5458;51.496;7.334;2022-08-21T06:21:38;33.30;63.90
10812;DHT22;5458;51.496;7.334;2022-08-21T06:24:05;33.70;61.80
10812;DHT22;5458;51.496;7.334;2022-08-21T06:26:31;34.10;60.70
10812;DHT22;5458;51.496;7.334;2022-08-21T06:28:57;34.40;58.60
10812;DHT22;5458;51.496;7.334;2022-08-21T06:31:25;34.80;57.20
10812;DHT22;5458;51.496;7.334;2022-08-21T06:33:52;35.30;56.20
10812;DHT22;5458;51.496;7.334;2022-08-21T06:36:18;35.40;54.50
10812;DHT22;5458;51.496;7.334;2022-08-21T06:38:44;35.40;54.60
10812;DHT22;5458;51.496;7.334;2022-08-21T06:41:11;35.70;54.50
10812;DHT22;5458;51.496;7.334;2022-08-21T06:43:36;35.80;53.70
10812;DHT22;5458;51.496;7.334;2022-08-21T06:46:02;36.10;52.80
10812;DHT22;5458;51.496;7.334;2022-08-21T06:48:28;35.70;52.60
10812;DHT22;5458;51.496;7.334;2022-08-21T06:50:55;35.70;52.70
10812;DHT22;5458;51.496;7.334;2022-08-21T06:53:21;36.00;52.70
10812;DHT22;5458;51.496;7.334;2022-08-21T06:55:47;36.10;51.50
10812;DHT22;5458;51.496;7.334;2022-08-21T06:58:14;36.20;51.50
10812;DHT22;5458;51.496;7.334;2022-08-21T07:00:41;36.50;50.80
10812;DHT22;5458;51.496;7.334;2022-08-21T07:03:15;36.80;49.70
10812;DHT22;5458;51.496;7.334;2022-08-21T07:05:41;36.90;49.20
10812;DHT22;5458;51.496;7.334;2022-08-21T07:08:07;37.20;49.00
10812;DHT22;5458;51.496;7.334;2022-08-21T07:10:32;37.70;47.60
10812;DHT22;5458;51.496;7.334;2022-08-21T07:12:58;38.00;48.00
10812;DHT22;5458;51.496;7.334;2022-08-21T07:15:23;38.40;47.50
10812;DHT22;5458;51.496;7.334;2022-08-21T07:17:49;38.60;46.40
10812;DHT22;5458;51.496;7.334;2022-08-21T07:20:15;38.50;46.20
10812;DHT22;5458;51.496;7.334;2022-08-21T07:22:40;38.40;46.20
10812;DHT22;5458;51.496;7.334;2022-08-21T07:25:07;38.90;46.00
10812;DHT22;5458;51.496;7.334;2022-08-21T07:27:33;39.50;44.80
10812;DHT22;5458;51.496;7.334;2022-08-21T07:29:59;39.80;43.60
10812;DHT22;5458;51.496;7.334;2022-08-21T07:32:24;40.00;43.40
10812;DHT22;5458;51.496;7.334;2022-08-21T07:34:50;40.40;42.40
10812;DHT22;5458;51.496;7.334;2022-08-21T07:37:16;40.60;42.00
10812;DHT22;5458;51.496;7.334;2022-08-21T07:39:41;40.60;41.80
10812;DHT22;5458;51.496;7.334;2022-08-21T07:42:07;40.50;42.00
10812;DHT22;5458;51.496;7.334;2022-08-21T07:44:33;40.80;41.50
10812;DHT22;5458;51.496;7.334;2022-08-21T07:47:00;40.80;41.00
10812;DHT22;5458;51.496;7.334;2022-08-21T07:49:27;40.90;40.80
10812;DHT22;5458;51.496;7.334;2022-08-21T07:51:52;40.90;40.20
10812;DHT22;5458;51.496;7.334;2022-08-21T07:54:18;41.10;40.20
10812;DHT22;5458;51.496;7.334;2022-08-21T07:56:44;41.50;40.10
10812;DHT22;5458;51.496;7.334;2022-08-21T07:59:09;41.70;38.50
10812;DHT22;5458;51.496;7.334;2022-08-21T08:01:35;41.70;38.40
10812;DHT22;5458;51.496;7.334;2022-08-21T08:04:00;41.60;38.90
10812;DHT22;5458;51.496;7.334;2022-08-21T08:06:26;41.70;38.10
10812;DHT22;5458;51.496;7.334;2022-08-21T08:08:52;42.10;38.00
10812;DHT22;5458;51.496;7.334;2022-08-21T08:11:18;42.40;37.40
10812;DHT22;5458;51.496;7.334;2022-08-21T08:13:49;41.40;35.90
10812;DHT22;5458;51.496;7.334;2022-08-21T08:16:16;40.40;36.70
10812;DHT22;5458;51.496;7.334;2022-08-21T08:18:42;40.20;37.10
10812;DHT22;5458;51.496;7.334;2022-08-21T08:21:10;40.10;37.20
10812;DHT22;5458;51.496;7.334;2022-08-21T08:23:36;40.60;37.10
10812;DHT22;5458;51.496;7.334;2022-08-21T08:26:01;40.90;36.20
10812;DHT22;5458;51.496;7.334;2022-08-21T08:28:31;41.00;36.40
10812;DHT22;5458;51.496;7.334;2022-08-21T08:30:59;41.00;36.20
10812;DHT22;5458;51.496;7.334;2022-08-21T08:33:24;40.20;36.90
10812;DHT22;5458;51.496;7.334;2022-08-21T08:35:51;39.40;37.80
10812;DHT22;5458;51.496;7.334;2022-08-21T08:38:18;38.40;38.30
10812;DHT22;5458;51.496;7.334;2022-08-21T08:40:58;37.60;38.80
10812;DHT22;5458;51.496;7.334;2022-08-21T08:43:27;36.50;39.70
10812;DHT22;5458;51.496;7.334;2022-08-21T08:45:56;35.40;42.00
10812;DHT22;5458;51.496;7.334;2022-08-21T08:48:44;34.60;43.10
10812;DHT22;5458;51.496;7.334;2022-08-21T08:51:47;34.00;43.80
10812;DHT22;5458;51.496;7.334;2022-08-21T08:57:00;33.00;46.50
10812;DHT22;5458;51.496;7.334;2022-08-21T08:59:35;32.60;46.90
10812;DHT22;5458;51.496;7.334;2022-08-21T09:02:01;32.20;46.50
10812;DHT22;5458;51.496;7.334;2022-08-21T09:04:28;31.50;47.90
10812;DHT22;5458;51.496;7.334;2022-08-21T09:21:07;30.20;51.70
10812;DHT22;5458;51.496;7.334;2022-08-21T09:26:15;30.00;52.40
10812;DHT22;5458;51.496;7.334;2022-08-21T09:28:41;30.30;52.10
10812;DHT22;5458;51.496;7.334;2022-08-21T09:31:15;30.20;53.00
10812;DHT22;5458;51.496;7.334;2022-08-21T09:33:44;30.30;51.80
10812;DHT22;5458;51.496;7.334;2022-08-21T09:36:10;30.40;51.50
10812;DHT22;5458;51.496;7.334;2022-08-21T09:38:36;30.00;52.60
10812;DHT22;5458;51.496;7.334;2022-08-21T09:41:07;30.00;52.70
10812;DHT22;5458;51.496;7.334;2022-08-21T09:43:34;30.10;54.40
10812;DHT22;5458;51.496;7.334;2022-08-21T09:46:04;30.20;52.20
10812;DHT22;5458;51.496;7.334;2022-08-21T09:48:42;30.00;51.90
10812;DHT22;5458;51.496;7.334;2022-08-21T09:51:12;29.70;52.70
10812;DHT22;5458;51.496;7.334;2022-08-21T09:53:42;29.50;53.00
10812;DHT22;5458;51.496;7.334;2022-08-21T09:59:30;29.20;53.10
10812;DHT22;5458;51.496;7.334;2022-08-21T10:02:02;29.10;54.60
10812;DHT22;5458;51.496;7.334;2022-08-21T10:04:32;29.00;54.00
10812;DHT22;5458;51.496;7.334;2022-08-21T10:07:12;29.00;54.10
10812;DHT22;5458;51.496;7.334;2022-08-21T10:09:39;28.90;55.20
10812;DHT22;5458;51.496;7.334;2022-08-21T10:12:22;29.00;55.00
10812;DHT22;5458;51.496;7.334;2022-08-21T10:17:32;29.00;54.70
10812;DHT22;5458;51.496;7.334;2022-08-21T10:20:09;28.70;54.00
10812;DHT22;5458;51.496;7.334;2022-08-21T10:23:04;28.40;54.00
10812;DHT22;5458;51.496;7.334;2022-08-21T10:25:42;28.30;56.00
10812;DHT22;5458;51.496;7.334;2022-08-21T10:28:16;28.30;55.50
10812;DHT22;5458;51.496;7.334;2022-08-21T10:33:40;28.30;55.70
10812;DHT22;5458;51.496;7.334;2022-08-21T10:36:21;28.50;56.50
10812;DHT22;5458;51.496;7.334;2022-08-21T10:41:24;28.70;55.60
10812;DHT22;5458;51.496;7.334;2022-08-21T10:54:45;28.60;54.90
10812;DHT22;5458;51.496;7.334;2022-08-21T10:57:22;28.40;56.00
10812;DHT22;5458;51.496;7.334;2022-08-21T11:00:00;28.20;55.50
10812;DHT22;5458;51.496;7.334;2022-08-21T11:02:35;28.30;56.10
10812;DHT22;5458;51.496;7.334;2022-08-21T11:05:24;28.40;56.30
10812;DHT22;5458;51.496;7.334;2022-08-21T11:08:01;28.50;54.90
10812;DHT22;5458;51.496;7.334;2022-08-21T11:10:32;28.20;54.30
10812;DHT22;5458;51.496;7.334;2022-08-21T11:13:05;28.00;54.50
10812;DHT22;5458;51.496;7.334;2022-08-21T11:18:37;27.80;55.90
10812;DHT22;5458;51.496;7.334;2022-08-21T11:26:45;28.00;55.70
10812;DHT22;5458;51.496;7.334;2022-08-21T11:29:17;28.20;55.30
10812;DHT22;5458;51.496;7.334;2022-08-21T11:37:17;28.00;52.90
10812;DHT22;5458;51.496;7.334;2022-08-21T11:48:10;27.80;53.70
10812;DHT22;5458;51.496;7.334;2022-08-21T11:50:40;27.70;53.60
10812;DHT22;5458;51.496;7.334;2022-08-21T11:53:15;27.60;54.90
10812;DHT22;5458;51.496;7.334;2022-08-21T11:56:10;27.70;54.90
10812;DHT22;5458;51.496;7.334;2022-08-21T11:58:48;27.80;54.40
10812;DHT22;5458;51.496;7.334;2022-08-21T12:01:19;27.80;54.90
10812;DHT22;5458;51.496;7.334;2022-08-21T12:03:56;27.90;54.50
10812;DHT22;5458;51.496;7.334;2022-08-21T12:06:36;28.00;54.80
10812;DHT22;5458;51.496;7.334;2022-08-21T12:14:44;27.60;55.60
10812;DHT22;5458;51.496;7.334;2022-08-21T12:17:34;27.70;56.10
10812;DHT22;5458;51.496;7.334;2022-08-21T12:23:28;28.00;55.10
10812;DHT22;5458;51.496;7.334;2022-08-21T12:26:13;28.00;55.40
10812;DHT22;5458;51.496;7.334;2022-08-21T12:28:42;28.10;55.30
10812;DHT22;5458;51.496;7.334;2022-08-21T12:31:23;28.10;54.90
10812;DHT22;5458;51.496;7.334;2022-08-21T12:33:54;28.00;55.60
10812;DHT22;5458;51.496;7.334;2022-08-21T12:36:24;28.00;55.60
10812;DHT22;5458;51.496;7.334;2022-08-21T12:38:56;28.10;54.70
10812;DHT22;5458;51.496;7.334;2022-08-21T12:41:27;28.00;54.30
10812;DHT22;5458;51.496;7.334;2022-08-21T12:43:59;28.00;56.10
10812;DHT22;5458;51.496;7.334;2022-08-21T12:46:48;28.00;55.10
10812;DHT22;5458;51.496;7.334;2022-08-21T12:49:53;28.10;54.80
10812;DHT22;5458;51.496;7.334;2022-08-21T12:52:22;28.10;54.40
10812;DHT22;5458;51.496;7.334;2022-08-21T12:54:48;28.00;53.20
10812;DHT22;5458;51.496;7.334;2022-08-21T12:57:23;28.00;53.70
10812;DHT22;5458;51.496;7.334;2022-08-21T13:00:00;28.10;53.80
10812;DHT22;5458;51.496;7.334;2022-08-21T13:02:30;28.20;54.10
10812;DHT22;5458;51.496;7.334;2022-08-21T13:04:57;28.30;53.90
10812;DHT22;5458;51.496;7.334;2022-08-21T13:07:27;28.30;52.50
10812;DHT22;5458;51.496;7.334;2022-08-21T13:12:25;28.30;54.00
10812;DHT22;5458;51.496;7.334;2022-08-21T13:14:52;28.30;52.10
10812;DHT22;5458;51.496;7.334;2022-08-21T13:17:21;28.20;53.00
10812;DHT22;5458;51.496;7.334;2022-08-21T13:20:02;28.20;53.90
10812;DHT22;5458;51.496;7.334;2022-08-21T13:22:28;28.00;52.30
10812;DHT22;5458;51.496;7.334;2022-08-21T13:24:54;27.90;53.10
10812;DHT22;5458;51.496;7.334;2022-08-21T13:27:28;27.80;53.90
10812;DHT22;5458;51.496;7.334;2022-08-21T13:30:22;27.80;53.60
10812;DHT22;5458;51.496;7.334;2022-08-21T13:32:52;27.60;54.10
10812;DHT22;5458;51.496;7.334;2022-08-21T13:35:21;27.40;54.20
10812;DHT22;5458;51.496;7.334;2022-08-21T13:37:48;27.40;53.70
10812;DHT22;5458;51.496;7.334;2022-08-21T13:40:20;27.30;54.40
10812;DHT22;5458;51.496;7.334;2022-08-21T13:42:48;27.20;54.50
10812;DHT22;5458;51.496;7.334;2022-08-21T13:45:32;27.20;54.10
10812;DHT22;5458;51.496;7.334;2022-08-21T13:47:59;27.30;55.20
10812;DHT22;5458;51.496;7.334;2022-08-21T13:50:26;27.30;54.60
10812;DHT22;5458;51.496;7.334;2022-08-21T13:53:02;27.40;54.40
10812;DHT22;5458;51.496;7.334;2022-08-21T13:55:40;27.40;53.40
10812;DHT22;5458;51.496;7.334;2022-08-21T13:58:07;27.30;53.90
10812;DHT22;5458;51.496;7.334;2022-08-21T14:00:44;27.20;53.80
10812;DHT22;5458;51.496;7.334;2022-08-21T14:03:15;27.10;53.80
10812;DHT22;5458;51.496;7.334;2022-08-21T14:05:48;27.00;54.30
10812;DHT22;5458;51.496;7.334;2022-08-21T14:08:36;26.90;54.70
10812;DHT22;5458;51.496;7.334;2022-08-21T14:11:04;27.00;54.50
10812;DHT22;5458;51.496;7.334;2022-08-21T14:13:42;27.00;54.70
10812;DHT22;5458;51.496;7.334;2022-08-21T14:16:22;27.10;54.60
10812;DHT22;5458;51.496;7.334;2022-08-21T14:24:03;27.10;55.60
10812;DHT22;5458;51.496;7.334;2022-08-21T14:26:29;27.10;54.30
10812;DHT22;5458;51.496;7.334;2022-08-21T14:28:59;27.10;54.50
10812;DHT22;5458;51.496;7.334;2022-08-21T14:31:30;27.20;55.10
10812;DHT22;5458;51.496;7.334;2022-08-21T14:33:58;27.30;55.00
10812;DHT22;5458;51.496;7.334;2022-08-21T14:36:24;27.30;54.80
10812;DHT22;5458;51.496;7.334;2022-08-21T14:38:49;27.30;55.40
10812;DHT22;5458;51.496;7.334;2022-08-21T14:41:24;27.30;55.70
10812;DHT22;5458;51.496;7.334;2022-08-21T14:43:53;27.20;56.00
10812;DHT22;5458;51.496;7.334;2022-08-21T14:46:27;27.20;56.60
10812;DHT22;5458;51.496;7.334;2022-08-21T14:48:54;27.20;56.40
10812;DHT22;5458;51.496;7.334;2022-08-21T14:51:20;27.10;56.50
10812;DHT22;5458;51.496;7.334;2022-08-21T14:53:47;27.10;56.60
10812;DHT22;5458;51.496;7.334;2022-08-21T14:56:13;27.00;56.10
10812;DHT22;5458;51.496;7.334;2022-08-21T14:58:41;26.90;56.70
10812;DHT22;5458;51.496;7.334;2022-08-21T15:01:09;26.90;56.60
10812;DHT22;5458;51.496;7.334;2022-08-21T15:03:36;27.00;56.00
10812;DHT22;5458;51.496;7.334;2022-08-21T15:06:03;26.90;55.50
10812;DHT22;5458;51.496;7.334;2022-08-21T15:08:29;26.90;55.40
10812;DHT22;5458;51.496;7.334;2022-08-21T15:10:55;26.90;55.60
10812;DHT22;5458;51.496;7.334;2022-08-21T15:13:21;27.00;55.60
10812;DHT22;5458;51.496;7.334;2022-08-21T15:15:48;27.00;56.00
10812;DHT22;5458;51.496;7.334;2022-08-21T15:18:15;27.10;57.70
10812;DHT22;5458;51.496;7.334;2022-08-21T15:20:41;27.10;55.40
10812;DHT22;5458;51.496;7.334;2022-08-21T15:23:08;27.10;54.40
10812;DHT22;5458;51.496;7.334;2022-08-21T15:25:34;27.10;54.90
10812;DHT22;5458;51.496;7.334;2022-08-21T15:28:02;27.20;55.30
10812;DHT22;5458;51.496;7.334;2022-08-21T15:30:29;27.20;54.80
10812;DHT22;5458;51.496;7.334;2022-08-21T15:32:55;27.30;54.80
10812;DHT22;5458;51.496;7.334;2022-08-21T15:35:21;27.30;55.20
10812;DHT22;5458;51.496;7.334;2022-08-21T15:37:47;27.30;55.10
10812;DHT22;5458;51.496;7.334;2022-08-21T15:40:12;27.30;54.40
10812;DHT22;5458;51.496;7.334;2022-08-21T15:42:40;27.40;54.70
10812;DHT22;5458;51.496;7.334;2022-08-21T15:45:06;27.50;54.60
10812;DHT22;5458;51.496;7.334;2022-08-21T15:47:34;27.40;54.50
10812;DHT22;5458;51.496;7.334;2022-08-21T15:50:01;27.40;54.60
10812;DHT22;5458;51.496;7.334;2022-08-21T15:52:27;27.40;55.70
10812;DHT22;5458;51.496;7.334;2022-08-21T15:54:54;27.40;55.60
10812;DHT22;5458;51.496;7.334;2022-08-21T15:57:21;27.50;55.60
10812;DHT22;5458;51.496;7.334;2022-08-21T15:59:50;27.40;55.40
10812;DHT22;5458;51.496;7.334;2022-08-21T16:02:26;27.50;55.50
10812;DHT22;5458;51.496;7.334;2022-08-21T16:04:52;27.40;55.80
10812;DHT22;5458;51.496;7.334;2022-08-21T16:07:18;27.30;56.30
10812;DHT22;5458;51.496;7.334;2022-08-21T16:09:44;27.30;56.20
10812;DHT22;5458;51.496;7.334;2022-08-21T16:12:17;27.30;55.70
10812;DHT22;5458;51.496;7.334;2022-08-21T16:14:44;27.30;56.70
10812;DHT22;5458;51.496;7.334;2022-08-21T16:17:10;27.30;56.20
10812;DHT22;5458;51.496;7.334;2022-08-21T16:19:36;27.30;56.30
10812;DHT22;5458;51.496;7.334;2022-08-21T16:22:03;27.30;56.30
10812;DHT22;5458;51.496;7.334;2022-08-21T16:24:29;27.30;56.20
10812;DHT22;5458;51.496;7.334;2022-08-21T16:26:55;27.20;56.80
10812;DHT22;5458;51.496;7.334;2022-08-21T16:29:21;27.10;56.50
10812;DHT22;5458;51.496;7.334;2022-08-21T16:31:47;27.10;56.60
10812;DHT22;5458;51.496;7.334;2022-08-21T16:34:17;27.10;57.40
10812;DHT22;5458;51.496;7.334;2022-08-21T16:36:43;27.00;57.20
10812;DHT22;5458;51.496;7.334;2022-08-21T16:39:09;27.00;57.20
10812;DHT22;5458;51.496;7.334;2022-08-21T16:41:35;26.90;57.20
10812;DHT22;5458;51.496;7.334;2022-08-21T16:44:02;26.90;58.00
10812;DHT22;5458;51.496;7.334;2022-08-21T16:46:33;26.90;57.20
10812;DHT22;5458;51.496;7.334;2022-08-21T16:48:59;26.80;57.90
10812;DHT22;5458;51.496;7.334;2022-08-21T16:51:25;26.80;57.90
10812;DHT22;5458;51.496;7.334;2022-08-21T16:53:50;26.80;58.10
10812;DHT22;5458;51.496;7.334;2022-08-21T16:56:16;26.80;57.70
10812;DHT22;5458;51.496;7.334;2022-08-21T16:58:46;26.80;57.80
10812;DHT22;5458;51.496;7.334;2022-08-21T17:01:16;26.80;58.10
10812;DHT22;5458;51.496;7.334;2022-08-21T17:03:46;26.80;58.10
10812;DHT22;5458;51.496;7.334;2022-08-21T17:06:14;26.80;57.90
10812;DHT22;5458;51.496;7.334;2022-08-21T17:08:40;26.70;57.80
10812;DHT22;5458;51.496;7.334;2022-08-21T17:11:15;26.60;58.20
10812;DHT22;5458;51.496;7.334;2022-08-21T17:13:41;26.60;58.40
10812;DHT22;5458;51.496;7.334;2022-08-21T17:16:07;26.50;58.90
10812;DHT22;5458;51.496;7.334;2022-08-21T17:18:32;26.50;58.70